2007 BONDO (2006350S07071)


On this page: IBTrACS data - Map and Plots - Positions - Intensities - Original source data

Summary

Start Dec 15
End Dec 28
Basin SI
LMI 135 kt
Sources jtwc_sh
reunion
neumann
In WMO? Yes
Previous storm 2006 TRAMI (WP)
Previous in basin 2007 ANITA (SI)
Concurrent storms 2006 TRAMI (WP)
2007 BONDO (SI)
Next in basin 2007 CLOVIS (SI)
Next storm 2007 CLOVIS (SI)

top of page IBTrACS Data: File Access

No storm imagery available

top of page Plots:

Map of storm track will not appear if FTP is down
Time series of cyclone Maximum Sustained Wind will not appear if FTP is down
Time series of cyclone Minimum Central Pressure will not appear if FTP is down

top of page Track Data:Position

jtwc_sh reunion neumann
Date Lat Lon Lat Lon Lat Lon
2006-12-15 12:00:00 -7.0 71.0
2006-12-15 18:00:00 -7.1 70.0
2006-12-16 00:00:00 -7.3 69.1 -7.2 69.1 -7.3 69.1
2006-12-16 06:00:00 -7.3 68.2 -7.3 68.3 -7.3 68.2
2006-12-16 12:00:00 -7.8 67.2 -7.5 67.8 -7.8 67.2
2006-12-16 18:00:00 -8.6 66.5 -8.3 67.1 -8.6 66.5
2006-12-17 00:00:00 -9.3 65.8 -9.3 66.4 -9.3 65.8
2006-12-17 06:00:00 -9.9 65.6 -10.1 65.8 -9.9 65.6
2006-12-17 12:00:00 -10.4 65.4 -10.4 65.4 -10.4 65.4
2006-12-17 18:00:00 -10.7 65.0 -10.7 64.9 -10.7 65.0
2006-12-18 00:00:00 -10.8 64.4 -10.7 64.4 -10.8 64.4
2006-12-18 06:00:00 -11.0 63.7 -10.8 63.8 -11.0 63.7
2006-12-18 12:00:00 -11.1 62.6 -10.9 62.9 -11.1 62.6
2006-12-18 18:00:00 -11.1 61.4 -10.9 61.7 -11.1 61.4
2006-12-19 00:00:00 -10.8 60.3 -10.6 60.4 -10.8 60.3
2006-12-19 06:00:00 -10.5 59.4 -10.5 59.4 -10.5 59.4
2006-12-19 12:00:00 -10.6 58.5 -10.6 58.5 -10.6 58.5
2006-12-19 18:00:00 -10.7 57.4 -10.7 57.4 -10.7 57.4
2006-12-20 00:00:00 -10.8 56.0 -10.7 56.1 -10.8 56.0
2006-12-20 06:00:00 -10.6 55.0 -10.5 55.0 -10.6 55.0
2006-12-20 12:00:00 -10.2 54.1 -10.2 54.0 -10.2 54.1
2006-12-20 18:00:00 -9.9 53.1 -9.9 53.2 -9.9 53.1
2006-12-21 00:00:00 -9.6 52.2 -9.7 52.2 -9.6 52.2
2006-12-21 06:00:00 -9.5 51.5 -9.4 51.5 -9.5 51.5
2006-12-21 12:00:00 -9.8 51.0 -9.6 51.0 -9.8 51.0
jtwc_sh reunion neumann
2006-12-21 18:00:00 -10.2 50.6 -10.0 50.5 -10.2 50.6
2006-12-22 00:00:00 -10.4 50.3 -10.1 50.3 -10.4 50.3
2006-12-22 06:00:00 -10.6 50.1 -10.4 50.1 -10.6 50.1
2006-12-22 12:00:00 -10.7 50.0 -10.6 50.2 -10.7 50.0
2006-12-22 18:00:00 -10.8 49.9 -10.8 50.1 -10.8 49.9
2006-12-23 00:00:00 -11.0 49.9 -11.1 50.0 -11.0 49.9
2006-12-23 06:00:00 -11.5 49.7 -11.4 49.5 -11.5 49.7
2006-12-23 12:00:00 -11.7 49.3 -11.6 49.2 -11.7 49.3
2006-12-23 18:00:00 -11.8 48.9 -11.7 48.8 -11.8 48.9
2006-12-24 00:00:00 -12.3 48.6 -12.1 48.5 -12.3 48.6
2006-12-24 06:00:00 -12.7 48.1 -12.7 48.0 -12.7 48.1
2006-12-24 12:00:00 -13.2 47.7 -13.2 47.7 -13.2 47.7
2006-12-24 18:00:00 -13.7 47.4 -13.7 47.5 -13.7 47.4
2006-12-25 00:00:00 -14.4 47.2 -14.2 47.2 -14.4 47.2
2006-12-25 06:00:00 -14.9 46.8 -14.9 46.9 -14.9 46.8
2006-12-25 12:00:00 -15.4 46.5 -15.7 46.5 -15.4 46.5
2006-12-25 18:00:00 -16.3 46.2 -16.4 46.1 -16.3 46.2
2006-12-26 00:00:00 -17.5 45.9 -17.3 45.3 -17.5 45.9
2006-12-26 06:00:00 -18.9 45.2 -18.1 44.7 -18.9 45.2
2006-12-26 12:00:00 -19.7 43.9 -19.2 43.8 -19.7 43.9
2006-12-26 18:00:00 -20.6 42.8 -20.0 43.4 -20.6 42.8
2006-12-27 00:00:00 -20.6 43.0
2006-12-27 06:00:00 -21.3 42.6
2006-12-27 12:00:00 -22.2 42.6
jtwc_sh reunion neumann
2006-12-27 18:00:00 -23.0 42.9
2006-12-28 00:00:00 -24.0 42.8
2006-12-28 06:00:00 -25.0 42.3

top of pageTrack Data:Intensity

jtwc_sh reunion neumann
Date Wind Pres Wind Pres Wind Pres
2006-12-15 12:00:00 15. 1010.
2006-12-15 18:00:00 15. 1010.
2006-12-16 00:00:00 15. 1006. 15. 1009. 15.
2006-12-16 06:00:00 15. 1006. 20. 1008. 15.
2006-12-16 12:00:00 20. 1004. 20. 1006. 20.
2006-12-16 18:00:00 25. 1002. 20. 1006. 25.
2006-12-17 00:00:00 25. 1002. 20. 1005. 25.
2006-12-17 06:00:00 30. 1000. 20. 1005. 30.
2006-12-17 12:00:00 30. 1000. 20. 1004. 30.
2006-12-17 18:00:00 30. 1000. 25. 1002. 30.
2006-12-18 00:00:00 35. 997. 27. 1001. 35.
2006-12-18 06:00:00 40. 994. 30. 999. 40.
2006-12-18 12:00:00 40. 993. 35. 996. 40.
2006-12-18 18:00:00 55. 984. 43. 992. 55.
2006-12-19 00:00:00 65. 976. 55. 983. 65.
2006-12-19 06:00:00 90. 956. 70. 970. 90.
2006-12-19 12:00:00 115. 927. 90. 950. 115.
2006-12-19 18:00:00 135. 904. 105. 935. 135.
2006-12-20 00:00:00 135. 904. 110. 930. 135.
2006-12-20 06:00:00 130. 910. 105. 935. 130.
2006-12-20 12:00:00 120. 922. 100. 940. 120.
2006-12-20 18:00:00 115. 927. 90. 950. 115.
2006-12-21 00:00:00 105. 938. 85. 955. 105.
2006-12-21 06:00:00 115. 927. 85. 955. 115.
2006-12-21 12:00:00 110. 933. 80. 960. 110.
jtwc_sh reunion neumann
2006-12-21 18:00:00 105. 938. 75. 965. 105.
2006-12-22 00:00:00 90. 954. 60. 980. 90.
2006-12-22 06:00:00 75. 967. 50. 987. 75.
2006-12-22 12:00:00 75. 967. 50. 987. 75.
2006-12-22 18:00:00 75. 967. 45. 990. 75.
2006-12-23 00:00:00 75. 967. 45. 990. 75.
2006-12-23 06:00:00 75. 967. 50. 987. 75.
2006-12-23 12:00:00 90. 954. 57. 982. 90.
2006-12-23 18:00:00 100. 944. 65. 975. 100.
2006-12-24 00:00:00 115. 927. 70. 970. 115.
2006-12-24 06:00:00 110. 941. 75. 965. 110.
2006-12-24 12:00:00 110. 941. 75. 965. 110.
2006-12-24 18:00:00 100. 948. 75. 965. 100.
2006-12-25 00:00:00 95. 952. 75. 965. 95.
2006-12-25 06:00:00 80. 963. 65. 975. 80.
2006-12-25 12:00:00 70. 970. 57. 985. 70.
2006-12-25 18:00:00 50. 987. 45. 991. 50.
2006-12-26 00:00:00 35. 997. 30. 1000. 35.
2006-12-26 06:00:00 25. 1002. 20. 1006. 25.
2006-12-26 12:00:00 25. 1004. 20. 1006. 25.
2006-12-26 18:00:00 20. 1004. 15. 1006. 20.
2006-12-27 00:00:00 15. 1006.
2006-12-27 06:00:00 15. 1006.
2006-12-27 12:00:00 15. 1006.
jtwc_sh reunion neumann
2006-12-27 18:00:00 15. 1007.
2006-12-28 00:00:00 15. 1008.
2006-12-28 06:00:00 15. 1008.

top of page Links to source data

Source Source file Format
jtwc_sh bsh052007.txt ATCF
reunion Best-Tracks-NewWMOFormat.txt:Line=1313:BONDO WMO (old format)
neumann tracks.sh:Storm=1356:BONDO:05S:BSH052007 HURDAT